sensor_id;sensor_type;location;lat;lon;timestamp;temperature;humidity
27224;DHT22;14965;50.660;13.226;2023-04-06T00:02:07;1.50;99.90
27224;DHT22;14965;50.660;13.226;2023-04-06T00:04:37;1.50;99.90
27224;DHT22;14965;50.660;13.226;2023-04-06T00:07:18;1.50;99.90
27224;DHT22;14965;50.660;13.226;2023-04-06T00:09:44;1.50;99.90
27224;DHT22;14965;50.660;13.226;2023-04-06T00:12:10;1.50;99.90
27224;DHT22;14965;50.660;13.226;2023-04-06T00:14:44;1.50;99.90
27224;DHT22;14965;50.660;13.226;2023-04-06T00:17:13;1.40;99.90
27224;DHT22;14965;50.660;13.226;2023-04-06T00:19:40;1.40;99.90
27224;DHT22;14965;50.660;13.226;2023-04-06T00:22:06;1.40;99.90
27224;DHT22;14965;50.660;13.226;2023-04-06T00:24:32;1.40;99.90
27224;DHT22;14965;50.660;13.226;2023-04-06T00:26:58;1.40;99.90
27224;DHT22;14965;50.660;13.226;2023-04-06T00:29:23;1.40;99.90
27224;DHT22;14965;50.660;13.226;2023-04-06T00:31:51;1.50;99.90
27224;DHT22;14965;50.660;13.226;2023-04-06T00:34:19;1.50;99.90
27224;DHT22;14965;50.660;13.226;2023-04-06T00:36:49;1.50;99.90
27224;DHT22;14965;50.660;13.226;2023-04-06T00:39:15;1.50;99.90
27224;DHT22;14965;50.660;13.226;2023-04-06T00:41:46;1.50;99.90
27224;DHT22;14965;50.660;13.226;2023-04-06T00:44:26;1.50;99.90
27224;DHT22;14965;50.660;13.226;2023-04-06T00:46:56;1.50;99.90
27224;DHT22;14965;50.660;13.226;2023-04-06T00:49:31;1.50;99.90
27224;DHT22;14965;50.660;13.226;2023-04-06T00:52:07;1.50;99.90
27224;DHT22;14965;50.660;13.226;2023-04-06T00:55:02;1.60;99.90
27224;DHT22;14965;50.660;13.226;2023-04-06T00:57:31;1.60;99.90
27224;DHT22;14965;50.660;13.226;2023-04-06T01:00:13;1.70;99.90
27224;DHT22;14965;50.660;13.226;2023-04-06T01:02:47;1.60;99.90
27224;DHT22;14965;50.660;13.226;2023-04-06T01:05:14;1.60;99.90
27224;DHT22;14965;50.660;13.226;2023-04-06T01:07:55;1.60;99.90
27224;DHT22;14965;50.660;13.226;2023-04-06T01:10:27;1.60;99.90
27224;DHT22;14965;50.660;13.226;2023-04-06T01:12:54;1.60;99.90
27224;DHT22;14965;50.660;13.226;2023-04-06T01:15:27;1.60;99.90
27224;DHT22;14965;50.660;13.226;2023-04-06T01:18:12;1.70;99.90
27224;DHT22;14965;50.660;13.226;2023-04-06T01:20:47;1.70;99.90
27224;DHT22;14965;50.660;13.226;2023-04-06T01:23:14;1.70;99.90
27224;DHT22;14965;50.660;13.226;2023-04-06T01:25:43;1.70;99.90
27224;DHT22;14965;50.660;13.226;2023-04-06T01:28:14;1.70;99.90
27224;DHT22;14965;50.660;13.226;2023-04-06T01:30:43;1.70;99.90
27224;DHT22;14965;50.660;13.226;2023-04-06T01:33:09;1.70;99.90
27224;DHT22;14965;50.660;13.226;2023-04-06T01:35:36;1.70;99.90
27224;DHT22;14965;50.660;13.226;2023-04-06T01:38:02;1.70;99.90
27224;DHT22;14965;50.660;13.226;2023-04-06T01:40:30;1.70;99.90
27224;DHT22;14965;50.660;13.226;2023-04-06T01:42:56;1.70;99.90
27224;DHT22;14965;50.660;13.226;2023-04-06T01:45:39;1.70;99.90
27224;DHT22;14965;50.660;13.226;2023-04-06T01:48:13;1.80;99.90
27224;DHT22;14965;50.660;13.226;2023-04-06T01:50:48;1.80;99.90
27224;DHT22;14965;50.660;13.226;2023-04-06T01:53:24;1.70;99.90
27224;DHT22;14965;50.660;13.226;2023-04-06T01:56:03;1.70;99.90
27224;DHT22;14965;50.660;13.226;2023-04-06T01:58:32;1.70;99.90
27224;DHT22;14965;50.660;13.226;2023-04-06T02:01:05;1.80;99.90
27224;DHT22;14965;50.660;13.226;2023-04-06T02:09:15;1.70;99.90
27224;DHT22;14965;50.660;13.226;2023-04-06T02:12:34;1.70;99.90
27224;DHT22;14965;50.660;13.226;2023-04-06T02:15:03;1.80;99.90
27224;DHT22;14965;50.660;13.226;2023-04-06T02:20:54;1.70;99.90
27224;DHT22;14965;50.660;13.226;2023-04-06T02:23:51;1.80;99.90
27224;DHT22;14965;50.660;13.226;2023-04-06T02:26:56;1.70;99.90
27224;DHT22;14965;50.660;13.226;2023-04-06T02:33:24;1.60;99.90
27224;DHT22;14965;50.660;13.226;2023-04-06T02:42:47;1.60;99.90
27224;DHT22;14965;50.660;13.226;2023-04-06T02:45:15;1.60;99.90
27224;DHT22;14965;50.660;13.226;2023-04-06T02:47:43;1.60;99.90
27224;DHT22;14965;50.660;13.226;2023-04-06T02:50:13;1.50;99.90
27224;DHT22;14965;50.660;13.226;2023-04-06T02:52:42;1.70;99.90
27224;DHT22;14965;50.660;13.226;2023-04-06T02:55:12;1.70;99.90
27224;DHT22;14965;50.660;13.226;2023-04-06T02:57:50;1.70;99.90
27224;DHT22;14965;50.660;13.226;2023-04-06T03:00:18;1.70;99.90
27224;DHT22;14965;50.660;13.226;2023-04-06T03:02:47;1.70;99.90
27224;DHT22;14965;50.660;13.226;2023-04-06T03:08:23;1.70;99.90
27224;DHT22;14965;50.660;13.226;2023-04-06T03:11:01;1.70;99.90
27224;DHT22;14965;50.660;13.226;2023-04-06T03:13:27;1.70;99.90
27224;DHT22;14965;50.660;13.226;2023-04-06T03:15:53;1.70;99.90
27224;DHT22;14965;50.660;13.226;2023-04-06T03:18:24;1.60;99.90
27224;DHT22;14965;50.660;13.226;2023-04-06T03:21:12;1.60;99.90
27224;DHT22;14965;50.660;13.226;2023-04-06T03:23:47;1.60;99.90
27224;DHT22;14965;50.660;13.226;2023-04-06T03:26:39;1.60;99.90
27224;DHT22;14965;50.660;13.226;2023-04-06T03:29:11;1.60;99.90
27224;DHT22;14965;50.660;13.226;2023-04-06T03:31:45;1.70;99.90
27224;DHT22;14965;50.660;13.226;2023-04-06T03:37:09;1.60;99.90
27224;DHT22;14965;50.660;13.226;2023-04-06T03:39:40;1.70;99.90
27224;DHT22;14965;50.660;13.226;2023-04-06T03:42:16;1.60;99.90
27224;DHT22;14965;50.660;13.226;2023-04-06T03:44:51;1.80;99.90
27224;DHT22;14965;50.660;13.226;2023-04-06T03:47:23;1.60;99.90
27224;DHT22;14965;50.660;13.226;2023-04-06T03:52:44;1.60;99.90
27224;DHT22;14965;50.660;13.226;2023-04-06T03:55:11;1.70;99.90
27224;DHT22;14965;50.660;13.226;2023-04-06T03:57:37;1.70;99.90
27224;DHT22;14965;50.660;13.226;2023-04-06T04:00:08;1.70;99.90
27224;DHT22;14965;50.660;13.226;2023-04-06T04:02:35;1.60;99.90
27224;DHT22;14965;50.660;13.226;2023-04-06T04:05:07;1.60;99.90
27224;DHT22;14965;50.660;13.226;2023-04-06T04:07:35;1.60;99.90
27224;DHT22;14965;50.660;13.226;2023-04-06T04:10:03;1.50;99.90
27224;DHT22;14965;50.660;13.226;2023-04-06T04:12:29;1.50;99.90
27224;DHT22;14965;50.660;13.226;2023-04-06T04:14:55;1.40;99.90
27224;DHT22;14965;50.660;13.226;2023-04-06T04:17:25;1.30;99.90
27224;DHT22;14965;50.660;13.226;2023-04-06T04:19:54;1.40;99.90
27224;DHT22;14965;50.660;13.226;2023-04-06T04:22:20;1.30;99.90
27224;DHT22;14965;50.660;13.226;2023-04-06T04:24:46;1.30;99.90
27224;DHT22;14965;50.660;13.226;2023-04-06T04:27:13;1.30;99.90
27224;DHT22;14965;50.660;13.226;2023-04-06T04:29:45;1.30;99.90
27224;DHT22;14965;50.660;13.226;2023-04-06T04:32:11;1.20;99.90
27224;DHT22;14965;50.660;13.226;2023-04-06T04:34:37;1.30;99.90
27224;DHT22;14965;50.660;13.226;2023-04-06T04:37:03;1.30;99.90
27224;DHT22;14965;50.660;13.226;2023-04-06T04:39:30;1.30;99.90
27224;DHT22;14965;50.660;13.226;2023-04-06T04:41:59;1.20;99.90
27224;DHT22;14965;50.660;13.226;2023-04-06T04:44:27;1.30;99.90
27224;DHT22;14965;50.660;13.226;2023-04-06T04:46:56;1.40;99.90
27224;DHT22;14965;50.660;13.226;2023-04-06T04:49:24;1.40;99.90
27224;DHT22;14965;50.660;13.226;2023-04-06T04:52:00;1.40;99.90
27224;DHT22;14965;50.660;13.226;2023-04-06T04:54:33;1.50;99.90
27224;DHT22;14965;50.660;13.226;2023-04-06T04:57:24;1.50;99.90
27224;DHT22;14965;50.660;13.226;2023-04-06T04:59:57;1.50;99.90
27224;DHT22;14965;50.660;13.226;2023-04-06T05:02:23;1.60;99.90
27224;DHT22;14965;50.660;13.226;2023-04-06T05:04:52;1.70;99.90
27224;DHT22;14965;50.660;13.226;2023-04-06T05:07:18;1.70;99.90
27224;DHT22;14965;50.660;13.226;2023-04-06T05:09:44;1.80;99.90
27224;DHT22;14965;50.660;13.226;2023-04-06T05:12:13;1.80;99.90
27224;DHT22;14965;50.660;13.226;2023-04-06T05:14:39;1.90;99.90
27224;DHT22;14965;50.660;13.226;2023-04-06T05:17:06;2.00;99.90
27224;DHT22;14965;50.660;13.226;2023-04-06T05:19:32;1.90;99.90
27224;DHT22;14965;50.660;13.226;2023-04-06T05:21:58;2.00;99.90
27224;DHT22;14965;50.660;13.226;2023-04-06T05:24:24;2.10;99.90
27224;DHT22;14965;50.660;13.226;2023-04-06T05:26:50;2.10;99.90
27224;DHT22;14965;50.660;13.226;2023-04-06T05:29:16;2.10;99.90
27224;DHT22;14965;50.660;13.226;2023-04-06T05:31:45;2.30;99.90
27224;DHT22;14965;50.660;13.226;2023-04-06T05:34:12;2.20;99.90
27224;DHT22;14965;50.660;13.226;2023-04-06T05:36:38;2.30;99.90
27224;DHT22;14965;50.660;13.226;2023-04-06T05:39:04;2.30;99.90
27224;DHT22;14965;50.660;13.226;2023-04-06T05:41:30;2.50;99.90
27224;DHT22;14965;50.660;13.226;2023-04-06T05:43:56;2.60;99.90
27224;DHT22;14965;50.660;13.226;2023-04-06T05:46:22;2.60;99.90
27224;DHT22;14965;50.660;13.226;2023-04-06T05:48:49;2.50;99.90
27224;DHT22;14965;50.660;13.226;2023-04-06T05:51:16;2.90;99.90
27224;DHT22;14965;50.660;13.226;2023-04-06T05:53:42;3.80;99.90
27224;DHT22;14965;50.660;13.226;2023-04-06T05:56:07;4.80;99.90
27224;DHT22;14965;50.660;13.226;2023-04-06T05:58:36;6.00;99.90
27224;DHT22;14965;50.660;13.226;2023-04-06T06:01:02;7.10;99.90
27224;DHT22;14965;50.660;13.226;2023-04-06T06:03:28;7.80;97.90
27224;DHT22;14965;50.660;13.226;2023-04-06T06:05:58;7.90;96.10
27224;DHT22;14965;50.660;13.226;2023-04-06T06:08:26;7.70;95.80
27224;DHT22;14965;50.660;13.226;2023-04-06T06:10:52;7.40;96.30
27224;DHT22;14965;50.660;13.226;2023-04-06T06:13:18;7.00;97.00
27224;DHT22;14965;50.660;13.226;2023-04-06T06:15:44;6.60;97.50
27224;DHT22;14965;50.660;13.226;2023-04-06T06:18:11;6.20;99.40
27224;DHT22;14965;50.660;13.226;2023-04-06T06:20:37;5.90;99.90
27224;DHT22;14965;50.660;13.226;2023-04-06T06:23:03;5.70;99.90
27224;DHT22;14965;50.660;13.226;2023-04-06T06:25:30;5.70;99.90
27224;DHT22;14965;50.660;13.226;2023-04-06T06:27:56;5.50;99.90
27224;DHT22;14965;50.660;13.226;2023-04-06T06:30:22;5.40;99.90
27224;DHT22;14965;50.660;13.226;2023-04-06T06:32:49;5.30;99.90
27224;DHT22;14965;50.660;13.226;2023-04-06T06:35:15;5.20;99.90
27224;DHT22;14965;50.660;13.226;2023-04-06T06:37:41;5.10;99.90
27224;DHT22;14965;50.660;13.226;2023-04-06T06:40:08;5.10;99.90
27224;DHT22;14965;50.660;13.226;2023-04-06T06:42:36;5.10;99.90
27224;DHT22;14965;50.660;13.226;2023-04-06T06:45:01;5.20;99.90
27224;DHT22;14965;50.660;13.226;2023-04-06T06:47:28;5.00;99.90
27224;DHT22;14965;50.660;13.226;2023-04-06T06:49:53;5.10;99.90
27224;DHT22;14965;50.660;13.226;2023-04-06T06:52:20;5.00;99.90
27224;DHT22;14965;50.660;13.226;2023-04-06T06:54:46;5.10;99.90
27224;DHT22;14965;50.660;13.226;2023-04-06T06:57:12;5.30;99.90
27224;DHT22;14965;50.660;13.226;2023-04-06T06:59:39;5.30;99.90
27224;DHT22;14965;50.660;13.226;2023-04-06T07:02:05;5.30;99.90
27224;DHT22;14965;50.660;13.226;2023-04-06T07:04:31;5.40;99.90
27224;DHT22;14965;50.660;13.226;2023-04-06T07:06:56;5.60;99.90
27224;DHT22;14965;50.660;13.226;2023-04-06T07:09:22;5.70;99.90
27224;DHT22;14965;50.660;13.226;2023-04-06T07:11:49;6.00;99.60
27224;DHT22;14965;50.660;13.226;2023-04-06T07:14:15;6.10;97.40
27224;DHT22;14965;50.660;13.226;2023-04-06T07:16:43;6.20;97.50
27224;DHT22;14965;50.660;13.226;2023-04-06T07:19:08;6.30;95.80
27224;DHT22;14965;50.660;13.226;2023-04-06T07:21:35;6.50;95.00
27224;DHT22;14965;50.660;13.226;2023-04-06T07:24:01;6.40;94.90
27224;DHT22;14965;50.660;13.226;2023-04-06T07:26:27;6.40;94.30
27224;DHT22;14965;50.660;13.226;2023-04-06T07:28:53;6.30;94.50
27224;DHT22;14965;50.660;13.226;2023-04-06T07:31:20;6.30;93.80
27224;DHT22;14965;50.660;13.226;2023-04-06T07:33:49;6.40;94.40
27224;DHT22;14965;50.660;13.226;2023-04-06T07:36:15;6.20;93.70
27224;DHT22;14965;50.660;13.226;2023-04-06T07:38:41;6.20;89.00
27224;DHT22;14965;50.660;13.226;2023-04-06T07:41:07;6.30;90.90
27224;DHT22;14965;50.660;13.226;2023-04-06T07:43:32;6.20;92.50
27224;DHT22;14965;50.660;13.226;2023-04-06T07:45:58;6.20;91.90
27224;DHT22;14965;50.660;13.226;2023-04-06T07:48:24;6.00;92.50
27224;DHT22;14965;50.660;13.226;2023-04-06T07:50:51;5.80;92.60
27224;DHT22;14965;50.660;13.226;2023-04-06T07:53:17;5.80;93.80
27224;DHT22;14965;50.660;13.226;2023-04-06T07:55:42;5.60;93.40
27224;DHT22;14965;50.660;13.226;2023-04-06T07:58:09;5.50;93.70
27224;DHT22;14965;50.660;13.226;2023-04-06T08:00:35;5.40;93.10
27224;DHT22;14965;50.660;13.226;2023-04-06T08:03:01;5.40;93.50
27224;DHT22;14965;50.660;13.226;2023-04-06T08:05:26;5.50;94.70
27224;DHT22;14965;50.660;13.226;2023-04-06T08:07:54;5.60;95.70
27224;DHT22;14965;50.660;13.226;2023-04-06T08:10:20;5.80;93.70
27224;DHT22;14965;50.660;13.226;2023-04-06T08:12:45;5.80;91.30
27224;DHT22;14965;50.660;13.226;2023-04-06T08:15:11;5.80;90.90
27224;DHT22;14965;50.660;13.226;2023-04-06T08:17:37;5.90;90.50
27224;DHT22;14965;50.660;13.226;2023-04-06T08:20:03;5.90;91.00
27224;DHT22;14965;50.660;13.226;2023-04-06T08:22:29;5.90;91.80
27224;DHT22;14965;50.660;13.226;2023-04-06T08:24:56;5.90;92.10
27224;DHT22;14965;50.660;13.226;2023-04-06T08:27:22;5.90;90.50
27224;DHT22;14965;50.660;13.226;2023-04-06T08:29:49;5.90;91.00
27224;DHT22;14965;50.660;13.226;2023-04-06T08:32:15;6.10;90.60
27224;DHT22;14965;50.660;13.226;2023-04-06T08:34:41;6.10;91.20
27224;DHT22;14965;50.660;13.226;2023-04-06T08:37:07;6.20;90.30
27224;DHT22;14965;50.660;13.226;2023-04-06T08:39:33;6.30;88.70
27224;DHT22;14965;50.660;13.226;2023-04-06T08:42:00;6.30;88.60
27224;DHT22;14965;50.660;13.226;2023-04-06T08:44:26;6.40;88.30
27224;DHT22;14965;50.660;13.226;2023-04-06T08:46:54;6.40;88.80
27224;DHT22;14965;50.660;13.226;2023-04-06T08:49:20;6.30;88.80
27224;DHT22;14965;50.660;13.226;2023-04-06T08:51:46;6.40;86.70
27224;DHT22;14965;50.660;13.226;2023-04-06T08:54:12;6.50;87.70
27224;DHT22;14965;50.660;13.226;2023-04-06T08:56:38;6.50;86.20
27224;DHT22;14965;50.660;13.226;2023-04-06T08:59:06;6.60;85.80
27224;DHT22;14965;50.660;13.226;2023-04-06T09:01:33;6.50;85.80
27224;DHT22;14965;50.660;13.226;2023-04-06T09:04:05;6.60;85.80
27224;DHT22;14965;50.660;13.226;2023-04-06T09:06:32;6.70;84.50
27224;DHT22;14965;50.660;13.226;2023-04-06T09:08:58;6.70;84.10
27224;DHT22;14965;50.660;13.226;2023-04-06T09:11:24;6.80;84.60
27224;DHT22;14965;50.660;13.226;2023-04-06T09:13:51;7.10;86.00
27224;DHT22;14965;50.660;13.226;2023-04-06T09:16:19;7.70;83.10
27224;DHT22;14965;50.660;13.226;2023-04-06T09:18:46;7.90;74.80
27224;DHT22;14965;50.660;13.226;2023-04-06T09:21:16;8.00;75.50
27224;DHT22;14965;50.660;13.226;2023-04-06T09:23:42;8.20;75.20
27224;DHT22;14965;50.660;13.226;2023-04-06T09:26:09;8.30;72.50
27224;DHT22;14965;50.660;13.226;2023-04-06T09:28:45;8.50;71.90
27224;DHT22;14965;50.660;13.226;2023-04-06T09:31:13;8.50;69.60
27224;DHT22;14965;50.660;13.226;2023-04-06T09:33:45;8.60;75.00
27224;DHT22;14965;50.660;13.226;2023-04-06T09:36:11;8.50;69.10
27224;DHT22;14965;50.660;13.226;2023-04-06T09:38:38;8.40;70.60
27224;DHT22;14965;50.660;13.226;2023-04-06T09:41:20;8.20;71.50
27224;DHT22;14965;50.660;13.226;2023-04-06T09:43:47;8.20;74.10
27224;DHT22;14965;50.660;13.226;2023-04-06T09:46:13;8.20;71.10
27224;DHT22;14965;50.660;13.226;2023-04-06T09:48:40;7.80;71.60
27224;DHT22;14965;50.660;13.226;2023-04-06T09:51:08;7.80;72.30
27224;DHT22;14965;50.660;13.226;2023-04-06T09:53:38;7.70;72.90
27224;DHT22;14965;50.660;13.226;2023-04-06T09:56:11;7.60;73.30
27224;DHT22;14965;50.660;13.226;2023-04-06T09:58:42;7.50;73.50
27224;DHT22;14965;50.660;13.226;2023-04-06T10:01:13;7.40;75.20
27224;DHT22;14965;50.660;13.226;2023-04-06T10:03:45;7.60;79.30
27224;DHT22;14965;50.660;13.226;2023-04-06T10:06:18;7.90;78.70
27224;DHT22;14965;50.660;13.226;2023-04-06T10:08:47;8.10;77.50
27224;DHT22;14965;50.660;13.226;2023-04-06T10:11:17;8.00;71.40
27224;DHT22;14965;50.660;13.226;2023-04-06T10:13:43;8.10;70.20
27224;DHT22;14965;50.660;13.226;2023-04-06T10:16:10;8.00;73.10
27224;DHT22;14965;50.660;13.226;2023-04-06T10:18:38;7.90;70.50
27224;DHT22;14965;50.660;13.226;2023-04-06T10:21:08;7.80;72.10
27224;DHT22;14965;50.660;13.226;2023-04-06T10:23:40;7.70;69.50
27224;DHT22;14965;50.660;13.226;2023-04-06T10:26:12;7.60;69.90
27224;DHT22;14965;50.660;13.226;2023-04-06T10:28:41;7.40;67.60
27224;DHT22;14965;50.660;13.226;2023-04-06T10:31:07;7.40;70.20
27224;DHT22;14965;50.660;13.226;2023-04-06T10:33:35;7.50;77.10
27224;DHT22;14965;50.660;13.226;2023-04-06T10:38:06;7.80;75.60
27224;DHT22;14965;50.660;13.226;2023-04-06T10:40:32;7.80;69.50
27224;DHT22;14965;50.660;13.226;2023-04-06T10:43:07;8.00;70.40
27224;DHT22;14965;50.660;13.226;2023-04-06T10:45:35;8.00;72.10
27224;DHT22;14965;50.660;13.226;2023-04-06T10:48:12;8.10;69.70
27224;DHT22;14965;50.660;13.226;2023-04-06T10:50:39;8.40;70.70
27224;DHT22;14965;50.660;13.226;2023-04-06T10:53:08;8.50;70.80
27224;DHT22;14965;50.660;13.226;2023-04-06T10:55:34;8.50;69.80
27224;DHT22;14965;50.660;13.226;2023-04-06T10:58:06;8.40;70.20
27224;DHT22;14965;50.660;13.226;2023-04-06T11:00:32;8.40;72.70
27224;DHT22;14965;50.660;13.226;2023-04-06T11:02:59;8.30;71.00
27224;DHT22;14965;50.660;13.226;2023-04-06T11:05:26;8.00;70.20
27224;DHT22;14965;50.660;13.226;2023-04-06T11:07:52;8.00;69.30
27224;DHT22;14965;50.660;13.226;2023-04-06T11:10:22;8.10;69.20
27224;DHT22;14965;50.660;13.226;2023-04-06T11:12:53;8.30;71.90
27224;DHT22;14965;50.660;13.226;2023-04-06T11:15:20;8.50;71.20
27224;DHT22;14965;50.660;13.226;2023-04-06T11:17:47;8.80;69.00
27224;DHT22;14965;50.660;13.226;2023-04-06T11:20:13;9.00;71.10
27224;DHT22;14965;50.660;13.226;2023-04-06T11:22:48;9.30;69.50
27224;DHT22;14965;50.660;13.226;2023-04-06T11:25:15;9.00;68.70
27224;DHT22;14965;50.660;13.226;2023-04-06T11:27:59;8.80;65.30
27224;DHT22;14965;50.660;13.226;2023-04-06T11:30:26;8.30;69.30
27224;DHT22;14965;50.660;13.226;2023-04-06T11:33:04;8.50;73.50
27224;DHT22;14965;50.660;13.226;2023-04-06T11:35:39;8.80;72.00
27224;DHT22;14965;50.660;13.226;2023-04-06T11:38:06;9.10;71.50
27224;DHT22;14965;50.660;13.226;2023-04-06T11:40:32;9.30;72.70
27224;DHT22;14965;50.660;13.226;2023-04-06T11:43:00;9.40;67.60
27224;DHT22;14965;50.660;13.226;2023-04-06T11:45:26;9.50;68.70
27224;DHT22;14965;50.660;13.226;2023-04-06T11:47:57;9.70;67.10
27224;DHT22;14965;50.660;13.226;2023-04-06T11:50:23;9.80;71.10
27224;DHT22;14965;50.660;13.226;2023-04-06T11:52:59;9.90;71.20
27224;DHT22;14965;50.660;13.226;2023-04-06T11:55:25;9.50;67.10
27224;DHT22;14965;50.660;13.226;2023-04-06T11:57:52;9.40;68.10
27224;DHT22;14965;50.660;13.226;2023-04-06T12:00:21;9.10;67.50
27224;DHT22;14965;50.660;13.226;2023-04-06T12:02:48;9.20;71.90
27224;DHT22;14965;50.660;13.226;2023-04-06T12:05:14;9.10;69.00
27224;DHT22;14965;50.660;13.226;2023-04-06T12:07:40;9.00;68.80
27224;DHT22;14965;50.660;13.226;2023-04-06T12:10:07;9.10;69.90
27224;DHT22;14965;50.660;13.226;2023-04-06T12:12:33;9.10;69.70
27224;DHT22;14965;50.660;13.226;2023-04-06T12:14:59;9.00;69.70
27224;DHT22;14965;50.660;13.226;2023-04-06T12:17:27;8.90;70.70
27224;DHT22;14965;50.660;13.226;2023-04-06T12:19:53;8.80;73.30
27224;DHT22;14965;50.660;13.226;2023-04-06T12:22:19;8.90;71.50
27224;DHT22;14965;50.660;13.226;2023-04-06T12:24:45;8.90;66.70
27224;DHT22;14965;50.660;13.226;2023-04-06T12:27:11;8.90;71.70
27224;DHT22;14965;50.660;13.226;2023-04-06T12:29:37;8.90;68.70
27224;DHT22;14965;50.660;13.226;2023-04-06T12:32:03;8.60;67.10
27224;DHT22;14965;50.660;13.226;2023-04-06T12:34:30;8.50;69.40
27224;DHT22;14965;50.660;13.226;2023-04-06T12:36:56;8.40;70.10
27224;DHT22;14965;50.660;13.226;2023-04-06T12:39:22;8.50;71.00
27224;DHT22;14965;50.660;13.226;2023-04-06T12:41:48;8.50;70.30
27224;DHT22;14965;50.660;13.226;2023-04-06T12:44:14;8.50;70.40
27224;DHT22;14965;50.660;13.226;2023-04-06T12:46:40;8.50;70.00
27224;DHT22;14965;50.660;13.226;2023-04-06T12:49:06;8.50;70.70
27224;DHT22;14965;50.660;13.226;2023-04-06T12:51:33;8.50;71.50
27224;DHT22;14965;50.660;13.226;2023-04-06T12:53:59;8.50;69.40
27224;DHT22;14965;50.660;13.226;2023-04-06T12:56:26;8.50;65.90
27224;DHT22;14965;50.660;13.226;2023-04-06T12:58:52;8.60;68.90
27224;DHT22;14965;50.660;13.226;2023-04-06T13:01:18;8.60;68.00
27224;DHT22;14965;50.660;13.226;2023-04-06T13:03:44;8.70;66.50
27224;DHT22;14965;50.660;13.226;2023-04-06T13:06:10;8.70;64.20
27224;DHT22;14965;50.660;13.226;2023-04-06T13:08:39;8.50;67.00
27224;DHT22;14965;50.660;13.226;2023-04-06T13:11:06;8.50;71.80
27224;DHT22;14965;50.660;13.226;2023-04-06T13:13:33;8.60;71.60
27224;DHT22;14965;50.660;13.226;2023-04-06T13:16:00;8.70;69.70
27224;DHT22;14965;50.660;13.226;2023-04-06T13:18:27;8.80;69.20
27224;DHT22;14965;50.660;13.226;2023-04-06T13:20:53;8.90;70.20
27224;DHT22;14965;50.660;13.226;2023-04-06T13:23:19;9.00;71.30
27224;DHT22;14965;50.660;13.226;2023-04-06T13:25:47;8.80;69.00
27224;DHT22;14965;50.660;13.226;2023-04-06T13:28:13;8.60;68.70
27224;DHT22;14965;50.660;13.226;2023-04-06T13:30:39;8.50;68.60
27224;DHT22;14965;50.660;13.226;2023-04-06T13:33:04;8.20;66.60
27224;DHT22;14965;50.660;13.226;2023-04-06T13:35:31;8.20;71.50
27224;DHT22;14965;50.660;13.226;2023-04-06T13:37:57;8.20;69.30
27224;DHT22;14965;50.660;13.226;2023-04-06T13:40:23;8.20;68.20
27224;DHT22;14965;50.660;13.226;2023-04-06T13:42:50;8.30;68.60
27224;DHT22;14965;50.660;13.226;2023-04-06T13:45:16;8.20;69.00
27224;DHT22;14965;50.660;13.226;2023-04-06T13:47:42;8.30;71.00
27224;DHT22;14965;50.660;13.226;2023-04-06T13:50:09;8.40;71.20
27224;DHT22;14965;50.660;13.226;2023-04-06T13:52:38;8.50;69.80
27224;DHT22;14965;50.660;13.226;2023-04-06T13:55:05;8.40;70.80
27224;DHT22;14965;50.660;13.226;2023-04-06T13:57:31;8.50;71.00
27224;DHT22;14965;50.660;13.226;2023-04-06T13:59:59;8.50;70.80
27224;DHT22;14965;50.660;13.226;2023-04-06T14:02:26;8.50;71.40
27224;DHT22;14965;50.660;13.226;2023-04-06T14:04:52;8.50;72.20
27224;DHT22;14965;50.660;13.226;2023-04-06T14:07:20;8.60;71.40
27224;DHT22;14965;50.660;13.226;2023-04-06T14:09:47;8.60;69.50
27224;DHT22;14965;50.660;13.226;2023-04-06T14:12:13;8.60;66.80
27224;DHT22;14965;50.660;13.226;2023-04-06T14:14:39;8.50;70.60
27224;DHT22;14965;50.660;13.226;2023-04-06T14:17:06;8.60;71.40
27224;DHT22;14965;50.660;13.226;2023-04-06T14:19:32;8.70;70.30
27224;DHT22;14965;50.660;13.226;2023-04-06T14:21:58;8.60;70.50
27224;DHT22;14965;50.660;13.226;2023-04-06T14:24:24;8.60;69.20
27224;DHT22;14965;50.660;13.226;2023-04-06T14:26:50;8.50;71.60
27224;DHT22;14965;50.660;13.226;2023-04-06T14:29:16;8.50;71.30
27224;DHT22;14965;50.660;13.226;2023-04-06T14:31:42;8.50;71.00
27224;DHT22;14965;50.660;13.226;2023-04-06T14:34:09;8.50;72.10
27224;DHT22;14965;50.660;13.226;2023-04-06T14:36:35;8.60;72.70
27224;DHT22;14965;50.660;13.226;2023-04-06T14:39:02;8.70;72.30
27224;DHT22;14965;50.660;13.226;2023-04-06T14:41:28;8.70;72.50
27224;DHT22;14965;50.660;13.226;2023-04-06T14:43:55;8.70;72.40
27224;DHT22;14965;50.660;13.226;2023-04-06T14:46:21;8.70;71.00
27224;DHT22;14965;50.660;13.226;2023-04-06T14:48:47;8.60;69.50
27224;DHT22;14965;50.660;13.226;2023-04-06T14:51:15;8.60;67.20
27224;DHT22;14965;50.660;13.226;2023-04-06T14:53:41;8.60;70.20
27224;DHT22;14965;50.660;13.226;2023-04-06T14:56:07;8.60;70.60
27224;DHT22;14965;50.660;13.226;2023-04-06T14:58:33;8.40;68.80
27224;DHT22;14965;50.660;13.226;2023-04-06T15:01:00;8.20;69.80
27224;DHT22;14965;50.660;13.226;2023-04-06T15:03:28;8.10;70.60
27224;DHT22;14965;50.660;13.226;2023-04-06T15:05:55;8.00;71.10
27224;DHT22;14965;50.660;13.226;2023-04-06T15:08:23;8.10;70.50
27224;DHT22;14965;50.660;13.226;2023-04-06T15:10:50;8.00;71.70
27224;DHT22;14965;50.660;13.226;2023-04-06T15:13:17;8.00;72.50
27224;DHT22;14965;50.660;13.226;2023-04-06T15:15:44;8.00;74.90
27224;DHT22;14965;50.660;13.226;2023-04-06T15:18:10;8.10;74.10
27224;DHT22;14965;50.660;13.226;2023-04-06T15:20:37;8.00;71.40
27224;DHT22;14965;50.660;13.226;2023-04-06T15:23:03;8.00;71.40
27224;DHT22;14965;50.660;13.226;2023-04-06T15:25:31;7.90;71.00
27224;DHT22;14965;50.660;13.226;2023-04-06T15:27:57;7.90;71.30
27224;DHT22;14965;50.660;13.226;2023-04-06T15:30:23;7.90;71.30
27224;DHT22;14965;50.660;13.226;2023-04-06T15:32:53;7.80;71.30
27224;DHT22;14965;50.660;13.226;2023-04-06T15:35:22;7.80;72.20
27224;DHT22;14965;50.660;13.226;2023-04-06T15:37:48;7.90;72.10
27224;DHT22;14965;50.660;13.226;2023-04-06T15:40:13;7.80;71.40
27224;DHT22;14965;50.660;13.226;2023-04-06T15:42:41;7.90;75.20
27224;DHT22;14965;50.660;13.226;2023-04-06T15:45:07;7.90;71.70
27224;DHT22;14965;50.660;13.226;2023-04-06T15:47:34;7.90;72.00
27224;DHT22;14965;50.660;13.226;2023-04-06T15:50:00;7.80;70.50
27224;DHT22;14965;50.660;13.226;2023-04-06T15:52:25;7.80;70.90
27224;DHT22;14965;50.660;13.226;2023-04-06T15:54:52;7.70;71.50
27224;DHT22;14965;50.660;13.226;2023-04-06T15:57:18;7.70;71.80
27224;DHT22;14965;50.660;13.226;2023-04-06T15:59:45;7.70;72.10
27224;DHT22;14965;50.660;13.226;2023-04-06T16:02:11;7.70;72.40
27224;DHT22;14965;50.660;13.226;2023-04-06T16:04:37;7.60;72.90
27224;DHT22;14965;50.660;13.226;2023-04-06T16:07:03;7.60;74.10
27224;DHT22;14965;50.660;13.226;2023-04-06T16:09:29;7.60;72.60